Time;durP1;ratioP1;P1;durP2;ratioP2;P2;SDS_P1;SDS_P2;PMS_P1;PMS_P2;Temp;Humidity;BMP_temperature;BMP_pressure;BME280_temperature;BME280_humidity;BME280_pressure;Samples;Min_cycle;Max_cycle;Signal;HPM_P1;HPM_P2
2024/01/26 00:02:31;;;;;;;5.07;2.30;;;23.20;43.60;;;;;;6152480;28;81412;-69
2024/01/26 00:05:31;;;;;;;4.25;2.38;;;23.20;43.60;;;;;;6153493;28;80337;-63
2024/01/26 00:08:32;;;;;;;5.65;2.53;;;23.20;43.50;;;;;;6139778;28;80610;-62
2024/01/26 00:11:32;;;;;;;5.60;2.83;;;23.20;43.50;;;;;;6151920;28;80526;-63
2024/01/26 00:14:33;;;;;;;6.28;2.40;;;23.20;43.60;;;;;;6152121;28;82395;-63
2024/01/26 00:17:33;;;;;;;5.40;2.63;;;23.20;43.50;;;;;;6148748;28;82641;-62
2024/01/26 00:20:34;;;;;;;4.93;2.22;;;23.20;43.50;;;;;;6153624;28;81263;-62
2024/01/26 00:23:35;;;;;;;7.22;2.53;;;23.20;43.50;;;;;;6141791;28;81180;-52
2024/01/26 00:26:36;;;;;;;5.47;2.10;;;23.20;43.60;;;;;;6141075;28;80958;-47
2024/01/26 00:29:36;;;;;;;4.95;2.35;;;23.20;43.70;;;;;;6151990;28;82095;-53
2024/01/26 00:32:37;;;;;;;4.35;2.40;;;23.20;43.70;;;;;;6138805;28;80643;-52
2024/01/26 00:35:37;;;;;;;5.05;2.35;;;23.20;43.70;;;;;;6146879;28;80328;-48
2024/01/26 00:38:38;;;;;;;4.43;2.22;;;23.20;43.70;;;;;;6151701;28;80798;-51
2024/01/26 00:41:38;;;;;;;3.33;1.92;;;23.20;43.90;;;;;;6143717;28;81438;-49
2024/01/26 00:44:39;;;;;;;6.40;2.55;;;23.20;43.80;;;;;;6146671;28;81353;-50
2024/01/26 00:47:39;;;;;;;4.03;2.33;;;23.20;43.70;;;;;;6152332;28;80681;-54
2024/01/26 00:50:40;;;;;;;3.83;2.17;;;23.20;43.70;;;;;;6144889;28;81660;-50
2024/01/26 00:53:41;;;;;;;5.10;1.80;;;23.20;43.70;;;;;;6146907;28;80455;-54
2024/01/26 00:56:41;;;;;;;5.45;2.08;;;23.20;43.80;;;;;;6151467;28;81077;-52
2024/01/26 00:59:42;;;;;;;5.95;1.95;;;23.20;43.70;;;;;;6151470;28;80441;-51
2024/01/26 01:02:43;;;;;;;5.55;2.20;;;23.20;43.60;;;;;;6147083;28;80058;-49
2024/01/26 01:05:43;;;;;;;5.60;2.35;;;23.20;43.90;;;;;;6151470;28;81003;-47
2024/01/26 01:08:44;;;;;;;3.60;1.85;;;23.20;43.80;;;;;;6151952;28;80383;-50
2024/01/26 01:11:44;;;;;;;4.55;2.20;;;23.20;43.80;;;;;;6152002;28;80970;-47
2024/01/26 01:14:47;;;;;;;2.83;1.80;;;23.20;44.20;;;;;;6151601;28;80927;-49
2024/01/26 01:17:47;;;;;;;5.18;2.13;;;23.20;44.00;;;;;;6151139;28;80731;-50
2024/01/26 01:20:48;;;;;;;5.22;2.20;;;23.20;44.20;;;;;;6149619;28;80836;-52
2024/01/26 01:23:48;;;;;;;3.40;1.67;;;23.20;44.00;;;;;;6150976;28;81587;-49
2024/01/26 01:26:49;;;;;;;4.85;2.10;;;23.20;44.20;;;;;;6139655;28;80807;-48
2024/01/26 01:29:49;;;;;;;3.47;2.17;;;23.20;44.30;;;;;;6139271;28;80710;-48
2024/01/26 01:32:50;;;;;;;2.58;1.50;;;23.20;43.80;;;;;;6148556;28;80629;-48
2024/01/26 01:35:51;;;;;;;4.45;1.98;;;23.20;43.70;;;;;;6150682;28;80458;-52
2024/01/26 01:38:51;;;;;;;3.03;1.70;;;23.20;43.70;;;;;;6144562;28;80705;-49
2024/01/26 01:41:52;;;;;;;2.38;1.63;;;23.20;43.90;;;;;;6141360;28;81565;-49
2024/01/26 01:44:52;;;;;;;3.97;1.77;;;23.20;43.80;;;;;;6148611;28;80874;-51
2024/01/26 01:47:53;;;;;;;2.85;1.40;;;23.20;43.90;;;;;;6150521;28;80295;-52
2024/01/26 01:50:53;;;;;;;3.20;1.50;;;23.10;43.90;;;;;;6142510;28;80402;-53
2024/01/26 01:53:54;;;;;;;3.25;1.33;;;23.10;43.80;;;;;;6147486;28;80444;-50
2024/01/26 01:56:54;;;;;;;2.30;1.33;;;23.10;44.10;;;;;;6150222;28;81231;-48
2024/01/26 01:59:55;;;;;;;3.92;1.45;;;23.10;44.10;;;;;;6141781;28;80678;-47
2024/01/26 02:02:56;;;;;;;3.08;1.75;;;23.10;44.20;;;;;;6148703;28;81311;-48
2024/01/26 02:05:56;;;;;;;2.22;1.70;;;23.10;44.10;;;;;;6149512;28;80979;-48
2024/01/26 02:08:57;;;;;;;3.15;1.60;;;23.10;44.20;;;;;;6152673;28;80813;-51
2024/01/26 02:11:59;;;;;;;2.30;1.38;;;23.10;44.00;;;;;;6154195;28;81681;-53
2024/01/26 02:15:00;;;;;;;2.67;1.42;;;23.10;44.10;;;;;;6154981;28;80167;-56
2024/01/26 02:18:01;;;;;;;3.10;1.83;;;23.10;44.00;;;;;;6148310;28;81634;-56
2024/01/26 02:21:01;;;;;;;2.00;1.60;;;23.10;44.10;;;;;;6154057;28;81351;-56
2024/01/26 02:24:02;;;;;;;1.92;1.40;;;23.10;43.90;;;;;;6152764;28;80803;-57
2024/01/26 02:27:03;;;;;;;3.10;1.40;;;23.10;43.80;;;;;;6153934;28;80644;-54
2024/01/26 02:30:04;;;;;;;1.55;1.10;;;23.10;43.90;;;;;;6150590;28;81660;-57
2024/01/26 02:33:04;;;;;;;2.53;1.20;;;23.10;43.80;;;;;;6148710;28;82028;-56
2024/01/26 02:36:05;;;;;;;2.20;1.50;;;23.10;43.90;;;;;;6150210;28;80798;-56
2024/01/26 02:39:05;;;;;;;1.77;1.27;;;23.10;43.90;;;;;;6154003;28;80867;-56
2024/01/26 02:42:06;;;;;;;2.13;1.30;;;23.10;44.00;;;;;;6142427;28;80243;-57
2024/01/26 02:45:06;;;;;;;1.83;1.02;;;23.10;44.00;;;;;;6151669;28;80661;-57
2024/01/26 02:48:07;;;;;;;2.45;1.50;;;23.10;44.00;;;;;;6153565;28;81983;-57
2024/01/26 02:51:07;;;;;;;1.58;1.10;;;23.10;44.10;;;;;;6152452;28;80914;-56
2024/01/26 02:54:08;;;;;;;1.83;1.17;;;23.10;44.60;;;;;;6153471;28;87662;-56
2024/01/26 02:57:08;;;;;;;1.90;1.10;;;23.10;43.70;;;;;;6170251;28;80434;-58
2024/01/26 03:00:09;;;;;;;1.92;1.33;;;23.10;44.30;;;;;;6161516;28;80796;-56
2024/01/26 03:03:09;;;;;;;1.90;1.27;;;23.10;44.20;;;;;;6153754;28;80149;-56
2024/01/26 03:06:13;;;;;;;3.97;1.30;;;23.10;44.00;;;;;;6154264;28;83359;-55
2024/01/26 03:09:13;;;;;;;2.03;1.20;;;23.10;43.80;;;;;;6154635;28;82574;-50
2024/01/26 03:12:14;;;;;;;2.08;1.10;;;23.10;44.00;;;;;;6152124;28;85914;-47
2024/01/26 03:15:14;;;;;;;4.32;1.55;;;23.10;44.50;;;;;;6143264;28;80936;-51
2024/01/26 03:18:15;;;;;;;1.13;0.90;;;23.10;44.10;;;;;;6150610;28;81353;-50
2024/01/26 03:21:15;;;;;;;1.30;1.00;;;23.10;44.20;;;;;;6131408;28;86937;-49
2024/01/26 03:24:16;;;;;;;2.42;1.30;;;23.10;44.20;;;;;;6153296;28;81331;-49
2024/01/26 03:27:16;;;;;;;1.65;1.00;;;23.10;44.50;;;;;;6151181;28;80710;-68
2024/01/26 03:30:17;;;;;;;2.42;1.20;;;23.10;44.50;;;;;;6136365;28;80870;-67
2024/01/26 03:33:18;;;;;;;1.50;1.02;;;23.10;44.20;;;;;;6142800;28;82180;-67
2024/01/26 03:36:18;;;;;;;1.98;1.10;;;23.10;44.30;;;;;;6143690;28;80995;-68
2024/01/26 03:39:19;;;;;;;1.63;1.00;;;23.10;44.20;;;;;;6145962;28;80731;-69
2024/01/26 03:42:19;;;;;;;1.40;1.20;;;23.10;44.00;;;;;;6139611;28;80864;-68
2024/01/26 03:45:20;;;;;;;2.33;1.17;;;23.10;44.00;;;;;;6141102;28;80748;-67
2024/01/26 03:48:20;;;;;;;1.65;1.00;;;23.00;44.00;;;;;;6152666;28;81671;-66
2024/01/26 03:51:21;;;;;;;1.23;0.82;;;23.10;43.90;;;;;;6148668;28;82857;-67
2024/01/26 03:54:22;;;;;;;1.83;1.15;;;23.10;43.90;;;;;;6146527;28;80819;-68
2024/01/26 03:57:22;;;;;;;1.73;1.10;;;23.10;43.80;;;;;;6142158;28;81186;-68
2024/01/26 04:00:23;;;;;;;2.00;1.38;;;23.10;43.70;;;;;;6149342;28;81245;-67
2024/01/26 04:03:23;;;;;;;1.35;1.00;;;23.10;43.80;;;;;;6151582;28;80083;-59
2024/01/26 04:06:24;;;;;;;1.52;0.80;;;23.10;43.70;;;;;;6150319;28;82111;-61
2024/01/26 04:09:24;;;;;;;0.95;0.77;;;23.10;44.00;;;;;;6148771;28;80869;-60
2024/01/26 04:12:25;;;;;;;1.20;0.90;;;23.10;44.20;;;;;;6148136;28;80681;-61
2024/01/26 04:15:25;;;;;;;1.75;0.90;;;23.10;44.80;;;;;;6151755;28;80747;-61
2024/01/26 04:18:26;;;;;;;1.88;1.00;;;23.10;44.50;;;;;;6150029;28;80551;-61
2024/01/26 04:21:26;;;;;;;1.80;1.17;;;23.10;44.10;;;;;;6153088;28;81068;-62
2024/01/26 04:24:27;;;;;;;1.33;1.00;;;23.00;44.00;;;;;;6152704;28;80296;-57
2024/01/26 04:27:28;;;;;;;3.53;1.02;;;23.10;44.00;;;;;;6146080;28;81804;-58
2024/01/26 04:30:28;;;;;;;1.45;0.93;;;23.10;44.00;;;;;;6140697;28;87903;-59
2024/01/26 04:33:29;;;;;;;2.42;1.20;;;23.10;43.90;;;;;;6170058;28;80956;-58
2024/01/26 04:36:30;;;;;;;2.63;1.20;;;23.10;43.70;;;;;;6157047;28;82056;-59
2024/01/26 04:39:30;;;;;;;1.95;1.23;;;23.20;43.60;;;;;;6148033;28;80392;-58
2024/01/26 04:42:31;;;;;;;2.40;1.38;;;23.20;43.60;;;;;;6134409;28;84686;-64
2024/01/26 04:45:31;;;;;;;1.42;1.05;;;23.20;43.60;;;;;;6141108;28;80560;-66
2024/01/26 04:48:32;;;;;;;2.42;1.20;;;23.20;43.60;;;;;;6138808;28;83442;-67
2024/01/26 04:51:32;;;;;;;1.73;1.17;;;23.20;43.60;;;;;;6147876;28;80479;-64
2024/01/26 04:54:33;;;;;;;3.53;0.98;;;23.30;43.60;;;;;;6132594;28;88167;-63
2024/01/26 04:57:33;;;;;;;6.95;1.80;;;23.30;43.60;;;;;;6169449;28;80335;-63
2024/01/26 05:00:34;;;;;;;4.03;0.93;;;23.30;43.50;;;;;;6148232;28;80615;-59
2024/01/26 05:03:34;;;;;;;2.78;1.55;;;23.30;43.50;;;;;;6157285;28;83483;-59
2024/01/26 05:06:35;;;;;;;4.38;1.17;;;23.30;43.60;;;;;;6140670;28;82669;-58
2024/01/26 05:09:35;;;;;;;5.88;1.35;;;23.30;44.20;;;;;;6153047;28;81527;-57
2024/01/26 05:12:36;;;;;;;3.92;1.10;;;23.30;44.60;;;;;;6150153;28;83283;-55
2024/01/26 05:15:36;;;;;;;5.30;1.48;;;23.40;44.90;;;;;;6148825;28;81291;-58
2024/01/26 05:18:37;;;;;;;2.53;1.73;;;23.40;44.90;;;;;;6150334;28;81516;-62
2024/01/26 05:21:37;;;;;;;14.38;1.65;;;23.40;44.90;;;;;;6149171;28;80867;-64
2024/01/26 05:24:38;;;;;;;2.90;1.70;;;23.40;45.60;;;;;;6149633;28;82817;-61
2024/01/26 05:27:41;;;;;;;8.30;2.42;;;23.50;44.70;;;;;;6143791;28;81823;-67
2024/01/26 05:30:41;;;;;;;4.38;1.88;;;23.40;44.50;;;;;;6143062;28;80418;-63
2024/01/26 05:33:42;;;;;;;6.68;2.00;;;23.50;44.70;;;;;;6152001;28;81202;-59
2024/01/26 05:36:42;;;;;;;8.13;2.30;;;23.50;44.50;;;;;;6139809;28;80659;-67
2024/01/26 05:39:43;;;;;;;5.13;2.58;;;23.50;44.50;;;;;;6149755;28;80932;-66
2024/01/26 05:42:43;;;;;;;5.47;2.10;;;23.50;44.40;;;;;;6150109;28;80832;-70
2024/01/26 05:45:44;;;;;;;4.93;2.25;;;23.40;44.10;;;;;;6146448;28;80554;-68
2024/01/26 05:48:44;;;;;;;5.78;2.03;;;23.40;44.10;;;;;;6149612;28;82567;-66
2024/01/26 05:51:45;;;;;;;4.75;1.58;;;23.40;43.70;;;;;;6149131;28;80794;-67
2024/01/26 05:54:45;;;;;;;4.25;2.17;;;23.30;43.50;;;;;;6150149;28;82132;-66
2024/01/26 05:57:46;;;;;;;7.18;2.25;;;23.30;43.30;;;;;;6149431;28;82461;-68
2024/01/26 06:00:47;;;;;;;5.43;2.75;;;23.30;43.10;;;;;;6149402;28;80501;-67
2024/01/26 06:03:47;;;;;;;5.88;2.60;;;23.20;42.90;;;;;;6153163;28;81981;-68
2024/01/26 06:06:47;;;;;;;9.38;2.92;;;23.20;42.70;;;;;;6147243;28;83225;-66
2024/01/26 06:09:48;;;;;;;8.85;2.83;;;23.20;42.50;;;;;;6142701;28;81211;-62
2024/01/26 06:12:49;;;;;;;13.80;2.92;;;23.20;42.60;;;;;;6147409;28;84315;-67
2024/01/26 06:15:49;;;;;;;8.30;2.88;;;23.10;42.20;;;;;;6149134;28;80938;-66
2024/01/26 06:18:49;;;;;;;6.97;2.85;;;23.00;42.20;;;;;;6144578;28;80987;-67
2024/01/26 06:21:51;;;;;;;7.97;3.00;;;23.00;42.20;;;;;;6138923;28;82981;-67
2024/01/26 06:24:52;;;;;;;9.25;2.97;;;22.90;42.10;;;;;;6132816;28;81569;-66
2024/01/26 06:27:52;;;;;;;10.23;3.28;;;22.90;41.90;;;;;;6156136;28;81006;-61
2024/01/26 06:30:53;;;;;;;7.80;2.97;;;22.90;42.10;;;;;;6152133;28;81577;-66
2024/01/26 06:33:53;;;;;;;8.90;3.58;;;22.90;42.30;;;;;;6159171;28;80574;-65
2024/01/26 06:36:54;;;;;;;6.68;2.42;;;22.90;42.00;;;;;;6148026;28;81183;-65
2024/01/26 06:39:55;;;;;;;8.52;3.58;;;22.90;41.80;;;;;;6138172;28;82342;-65
2024/01/26 06:42:55;;;;;;;6.75;2.97;;;22.80;41.70;;;;;;6135634;28;83679;-65
2024/01/26 06:45:56;;;;;;;5.65;2.72;;;22.80;41.70;;;;;;6151830;28;80778;-65
2024/01/26 06:48:56;;;;;;;5.22;2.97;;;22.80;41.60;;;;;;6151548;28;80314;-65
2024/01/26 06:51:57;;;;;;;7.40;3.80;;;22.80;41.50;;;;;;6153431;28;81766;-49
2024/01/26 06:54:57;;;;;;;7.30;3.28;;;22.70;41.30;;;;;;6153303;28;82087;-49
2024/01/26 06:57:58;;;;;;;8.07;3.33;;;22.70;41.30;;;;;;6152191;28;80595;-49
2024/01/26 07:00:59;;;;;;;8.07;3.50;;;22.70;41.30;;;;;;6152255;28;80828;-48
2024/01/26 07:03:59;;;;;;;6.63;3.15;;;22.70;41.20;;;;;;6145943;28;80531;-50
2024/01/26 07:07:00;;;;;;;7.53;3.45;;;22.70;41.20;;;;;;6152544;28;80442;-51
2024/01/26 07:10:00;;;;;;;8.10;3.53;;;22.60;41.10;;;;;;6152396;28;80559;-57
2024/01/26 07:13:01;;;;;;;9.38;3.55;;;22.70;41.10;;;;;;6152494;28;80618;-57
2024/01/26 07:16:01;;;;;;;6.38;3.10;;;22.60;41.10;;;;;;6146803;28;80411;-57
2024/01/26 07:19:02;;;;;;;9.30;4.07;;;22.60;41.00;;;;;;6148227;28;80880;-58
2024/01/26 07:22:02;;;;;;;7.25;3.28;;;22.60;41.00;;;;;;6151760;28;81221;-55
2024/01/26 07:25:09;;;;;;;7.22;2.97;;;22.60;41.00;;;;;;6143149;28;83839;-57
2024/01/26 07:28:10;;;;;;;8.50;3.53;;;22.60;40.90;;;;;;6140958;28;84955;-58
2024/01/26 07:31:10;;;;;;;10.00;3.78;;;22.60;40.90;;;;;;6145061;28;83657;-57
2024/01/26 07:34:11;;;;;;;6.38;3.58;;;22.60;40.80;;;;;;6153324;28;81065;-58
2024/01/26 07:37:12;;;;;;;8.18;3.40;;;22.60;40.80;;;;;;6150118;28;80993;-58
2024/01/26 07:40:12;;;;;;;9.05;3.65;;;22.60;40.80;;;;;;6152979;28;82441;-56
2024/01/26 07:43:13;;;;;;;10.05;3.40;;;22.60;40.80;;;;;;6151476;28;81436;-57
2024/01/26 07:46:13;;;;;;;7.25;3.50;;;22.60;40.80;;;;;;6139259;28;80575;-56
2024/01/26 07:49:14;;;;;;;7.28;3.40;;;22.60;40.80;;;;;;6148583;28;80323;-57
2024/01/26 07:52:14;;;;;;;6.88;3.38;;;22.60;40.80;;;;;;6142698;28;80141;-56
2024/01/26 07:55:15;;;;;;;7.38;2.88;;;22.50;40.70;;;;;;6152056;28;80395;-57
2024/01/26 07:58:15;;;;;;;12.13;4.00;;;22.50;40.70;;;;;;6152530;28;81839;-56
2024/01/26 08:01:16;;;;;;;6.60;2.95;;;22.50;40.70;;;;;;6150587;28;80407;-56
2024/01/26 08:04:16;;;;;;;6.45;3.13;;;22.60;40.80;;;;;;6149509;28;81870;-65
2024/01/26 08:07:17;;;;;;;7.43;3.22;;;22.50;40.60;;;;;;6150870;28;80110;-67
2024/01/26 08:10:17;;;;;;;11.18;3.40;;;22.50;40.70;;;;;;6151654;28;80583;-65
2024/01/26 08:13:18;;;;;;;10.25;4.97;;;22.60;40.70;;;;;;6149554;28;82009;-65
2024/01/26 08:16:19;;;;;;;6.95;2.90;;;22.60;40.60;;;;;;6149933;28;81291;-65
2024/01/26 08:19:19;;;;;;;8.68;3.38;;;22.60;41.00;;;;;;6137508;28;83760;-66
2024/01/26 08:22:20;;;;;;;9.23;3.75;;;22.60;41.20;;;;;;6152347;28;82959;-63
2024/01/26 08:25:20;;;;;;;7.30;2.90;;;22.60;41.30;;;;;;6151823;28;80680;-60
2024/01/26 08:28:21;;;;;;;6.80;2.90;;;22.70;41.10;;;;;;6140755;28;86047;-61
2024/01/26 08:31:21;;;;;;;8.05;3.13;;;22.70;40.60;;;;;;6148350;28;81558;-59
2024/01/26 08:34:22;;;;;;;8.63;3.70;;;22.80;40.60;;;;;;6144066;28;80741;-68
2024/01/26 08:37:23;;;;;;;9.32;4.15;;;22.80;40.50;;;;;;6144796;28;81161;-64
2024/01/26 08:40:23;;;;;;;7.40;3.63;;;22.80;40.30;;;;;;6144407;28;87884;-67
2024/01/26 08:43:24;;;;;;;6.53;3.45;;;22.80;39.80;;;;;;6140731;28;81154;-64
2024/01/26 08:46:24;;;;;;;8.57;3.90;;;22.90;39.70;;;;;;6172555;28;80583;-63
2024/01/26 08:49:25;;;;;;;9.30;4.30;;;22.90;39.70;;;;;;6151498;28;80343;-63
2024/01/26 08:52:25;;;;;;;7.85;3.67;;;22.90;40.10;;;;;;6146811;28;81188;-63
2024/01/26 08:55:26;;;;;;;9.32;4.35;;;23.00;40.00;;;;;;6138292;28;81568;-63
2024/01/26 08:58:26;;;;;;;10.20;3.90;;;23.00;39.80;;;;;;6144721;28;84873;-63
2024/01/26 09:01:27;;;;;;;9.15;4.18;;;23.00;39.80;;;;;;6159860;28;81385;-64
2024/01/26 09:04:27;;;;;;;9.20;4.28;;;23.00;39.80;;;;;;6150500;28;80536;-63
2024/01/26 09:07:28;;;;;;;8.43;3.97;;;23.00;39.60;;;;;;6148634;28;83063;-63
2024/01/26 09:10:28;;;;;;;10.02;3.97;;;23.00;39.70;;;;;;6148277;28;81440;-60
2024/01/26 09:13:29;;;;;;;9.40;3.88;;;23.00;39.70;;;;;;6151468;28;80384;-64
2024/01/26 09:16:29;;;;;;;11.98;4.47;;;23.10;39.70;;;;;;6143309;28;80635;-63
2024/01/26 09:19:30;;;;;;;10.70;4.65;;;23.10;39.60;;;;;;6154511;28;80442;-63
2024/01/26 09:22:32;;;;;;;9.30;4.38;;;23.00;39.50;;;;;;6155428;28;80761;-62
2024/01/26 09:25:33;;;;;;;7.05;3.67;;;23.00;39.60;;;;;;6153069;28;81025;-64
2024/01/26 09:28:33;;;;;;;9.35;3.72;;;23.10;39.40;;;;;;6145474;28;86964;-63
2024/01/26 09:31:34;;;;;;;9.23;3.75;;;23.10;39.30;;;;;;6147418;28;81800;-63
2024/01/26 09:34:34;;;;;;;11.20;4.80;;;23.10;39.40;;;;;;6162778;28;80392;-57
2024/01/26 09:37:35;;;;;;;9.45;3.95;;;23.10;39.70;;;;;;6141868;28;80503;-57
2024/01/26 09:40:35;;;;;;;9.38;4.05;;;23.10;39.70;;;;;;6152999;28;80646;-58
2024/01/26 09:43:36;;;;;;;7.78;3.60;;;23.10;39.60;;;;;;6143935;28;80427;-56
2024/01/26 09:46:36;;;;;;;8.93;3.90;;;23.20;39.60;;;;;;6155048;28;80537;-55
2024/01/26 09:49:37;;;;;;;8.25;4.13;;;23.20;39.90;;;;;;6153361;28;81339;-57
2024/01/26 09:52:37;;;;;;;9.05;4.40;;;23.20;40.40;;;;;;6157460;28;80441;-52
2024/01/26 09:55:40;;;;;;;8.23;4.72;;;23.20;41.40;;;;;;6151224;28;80558;-64
2024/01/26 09:58:40;;;;;;;7.55;3.97;;;23.30;42.10;;;;;;6156855;28;80374;-66
2024/01/26 10:01:41;;;;;;;11.52;4.32;;;23.30;43.60;;;;;;6156853;28;81958;-68
2024/01/26 10:04:42;;;;;;;10.20;4.05;;;23.30;43.80;;;;;;6143775;28;81627;-63
2024/01/26 10:07:44;;;;;;;9.63;4.30;;;23.30;44.40;;;;;;6155683;28;81194;-65
2024/01/26 10:10:45;;;;;;;11.45;5.00;;;23.30;43.90;;;;;;6155837;28;80606;-62
2024/01/26 10:13:45;;;;;;;10.85;4.57;;;23.30;45.10;;;;;;6146403;28;80497;-61
2024/01/26 10:16:46;;;;;;;12.43;4.32;;;23.30;44.80;;;;;;6152629;28;82464;-65
2024/01/26 10:19:46;;;;;;;8.48;4.22;;;23.30;45.10;;;;;;6151154;28;80411;-64
2024/01/26 10:22:47;;;;;;;11.07;4.30;;;23.30;45.00;;;;;;6157254;28;81629;-64
2024/01/26 10:25:47;;;;;;;10.38;4.70;;;23.40;46.50;;;;;;6151085;28;80584;-63
2024/01/26 10:28:48;;;;;;;11.50;4.20;;;23.40;46.40;;;;;;6141099;28;80919;-69
2024/01/26 10:31:50;;;;;;;11.00;4.75;;;23.40;46.30;;;;;;6154418;28;80376;-48
2024/01/26 10:34:50;;;;;;;12.48;4.68;;;23.40;46.90;;;;;;6143470;28;80445;-51
2024/01/26 10:37:51;;;;;;;7.68;3.97;;;23.40;45.90;;;;;;6143650;28;83726;-49
2024/01/26 10:40:51;;;;;;;12.10;4.85;;;23.40;44.60;;;;;;6151050;28;83024;-50
2024/01/26 10:43:55;;;;;;;8.98;4.00;;;23.40;43.80;;;;;;6145429;28;83397;-50
2024/01/26 10:46:56;;;;;;;9.57;4.30;;;23.40;43.20;;;;;;6142587;28;81480;-49
2024/01/26 10:49:57;;;;;;;10.02;4.80;;;23.40;42.70;;;;;;6152643;28;80187;-53
2024/01/26 10:52:58;;;;;;;10.27;3.95;;;23.30;42.40;;;;;;6150997;28;80322;-53
2024/01/26 10:55:58;;;;;;;10.70;4.75;;;23.40;42.20;;;;;;6154035;28;80745;-49
2024/01/26 10:58:59;;;;;;;10.93;4.72;;;23.30;42.00;;;;;;6153541;28;82451;-53
2024/01/26 11:02:01;;;;;;;8.73;4.35;;;23.30;41.80;;;;;;6152750;28;80559;-51
2024/01/26 11:05:07;;;;;;;8.00;4.75;;;23.30;41.70;;;;;;6153898;28;81342;-52
2024/01/26 11:08:07;;;;;;;12.90;5.35;;;23.30;41.50;;;;;;6143806;28;80341;-62
2024/01/26 11:11:08;;;;;;;11.30;4.38;;;23.30;41.30;;;;;;6141186;28;81259;-63
2024/01/26 11:14:09;;;;;;;9.07;4.15;;;23.30;41.20;;;;;;6153494;28;80843;-62
2024/01/26 11:17:09;;;;;;;8.77;4.70;;;23.20;40.80;;;;;;6146108;28;81391;-62
2024/01/26 11:20:10;;;;;;;12.05;5.28;;;23.20;40.90;;;;;;6147599;28;80473;-63
2024/01/26 11:23:14;;;;;;;8.10;4.25;;;23.20;40.80;;;;;;6150871;28;80872;-63
2024/01/26 11:26:14;;;;;;;9.38;4.80;;;23.20;40.80;;;;;;6152897;28;80953;-64
2024/01/26 11:29:15;;;;;;;9.60;4.28;;;23.10;40.70;;;;;;6153081;28;80448;-64
2024/01/26 11:32:16;;;;;;;8.52;4.28;;;23.10;40.50;;;;;;6149534;28;80522;-64
2024/01/26 11:35:16;;;;;;;10.90;4.40;;;23.10;40.70;;;;;;6153511;28;80200;-63
2024/01/26 11:38:18;;;;;;;10.07;4.05;;;23.10;40.60;;;;;;6152908;28;81161;-63
2024/01/26 11:41:19;;;;;;;10.48;4.47;;;23.10;40.50;;;;;;6140643;28;80399;-64
2024/01/26 11:44:22;;;;;;;10.00;4.90;;;23.10;40.40;;;;;;6144980;28;80956;-64
2024/01/26 11:47:22;;;;;;;8.70;3.85;;;23.10;40.10;;;;;;6145332;28;80476;-64
2024/01/26 11:50:23;;;;;;;9.30;4.45;;;23.10;40.60;;;;;;6152818;28;80150;-64
2024/01/26 11:53:24;;;;;;;9.43;4.22;;;23.10;39.90;;;;;;6139861;28;80420;-64
2024/01/26 11:56:24;;;;;;;12.55;5.53;;;23.10;39.90;;;;;;6150857;28;80692;-64
2024/01/26 11:59:25;;;;;;;10.15;4.25;;;23.00;39.70;;;;;;6150080;28;80988;-63
2024/01/26 12:02:25;;;;;;;8.90;4.63;;;23.00;39.70;;;;;;6152555;28;81763;-63
2024/01/26 12:05:26;;;;;;;8.95;4.32;;;23.00;39.70;;;;;;6151636;28;81279;-63
2024/01/26 12:08:26;;;;;;;8.23;3.80;;;23.00;39.60;;;;;;6149942;28;80779;-67
2024/01/26 12:11:27;;;;;;;8.93;4.72;;;22.90;39.80;;;;;;6142673;28;80931;-66
2024/01/26 12:14:28;;;;;;;8.30;4.45;;;23.00;40.10;;;;;;6146916;28;80761;-66
2024/01/26 12:17:28;;;;;;;10.85;4.05;;;22.90;40.60;;;;;;6154554;28;86147;-61
2024/01/26 12:20:29;;;;;;;9.93;4.18;;;22.90;40.50;;;;;;6157369;28;80370;-60
2024/01/26 12:23:29;;;;;;;7.45;4.07;;;22.90;40.10;;;;;;6157517;28;80725;-60
2024/01/26 12:26:30;;;;;;;7.22;4.10;;;22.90;39.90;;;;;;6158359;28;82012;-62
2024/01/26 12:29:30;;;;;;;8.23;3.90;;;22.90;39.80;;;;;;6152311;28;81021;-61
2024/01/26 12:32:31;;;;;;;13.88;4.25;;;22.80;39.70;;;;;;6152283;28;81863;-62
2024/01/26 12:35:31;;;;;;;8.02;4.03;;;22.80;39.60;;;;;;6152501;28;81505;-62
2024/01/26 12:38:32;;;;;;;7.57;4.40;;;22.80;39.70;;;;;;6152674;28;82096;-65
2024/01/26 12:41:33;;;;;;;7.75;3.88;;;22.80;39.50;;;;;;6160060;28;80211;-65
2024/01/26 12:44:36;;;;;;;9.25;3.75;;;22.80;39.60;;;;;;6152155;28;80467;-66
2024/01/26 12:47:36;;;;;;;9.27;4.20;;;22.80;39.60;;;;;;6162563;28;81371;-65
2024/01/26 12:50:37;;;;;;;7.32;4.03;;;22.80;39.50;;;;;;6172274;28;81145;-65
2024/01/26 12:53:37;;;;;;;5.93;3.53;;;22.80;39.60;;;;;;6173136;28;81341;-64
2024/01/26 12:56:38;;;;;;;4.93;2.88;;;22.80;39.70;;;;;;6172793;28;80636;-64
2024/01/26 12:59:39;;;;;;;7.20;3.63;;;22.80;39.70;;;;;;6163526;28;80175;-64
2024/01/26 13:02:40;;;;;;;5.88;3.00;;;22.80;39.90;;;;;;6161955;28;80605;-65
2024/01/26 13:05:40;;;;;;;7.97;3.80;;;22.90;39.40;;;;;;6165619;28;81534;-64
2024/01/26 13:08:41;;;;;;;8.95;3.88;;;22.90;39.20;;;;;;6166128;28;80216;-64
2024/01/26 13:11:41;;;;;;;6.57;3.17;;;22.90;39.20;;;;;;6169141;28;81716;-67
2024/01/26 13:14:42;;;;;;;5.47;3.20;;;22.90;39.00;;;;;;6167969;28;80997;-63
2024/01/26 13:17:43;;;;;;;5.80;3.05;;;23.00;38.60;;;;;;6152173;28;84716;-61
2024/01/26 13:20:43;;;;;;;7.28;3.30;;;23.00;38.50;;;;;;6170393;28;82114;-62
2024/01/26 13:23:44;;;;;;;5.47;3.30;;;23.10;38.60;;;;;;6164912;28;80821;-64
2024/01/26 13:26:44;;;;;;;7.60;3.40;;;23.10;38.60;;;;;;6163238;28;80575;-61
2024/01/26 13:29:46;;;;;;;11.10;3.47;;;23.10;38.30;;;;;;6164989;28;80858;-59
2024/01/26 13:32:47;;;;;;;9.63;3.80;;;23.10;38.30;;;;;;6152320;28;82578;-61
2024/01/26 13:35:48;;;;;;;9.02;3.92;;;23.20;38.50;;;;;;6169472;28;80678;-68
2024/01/26 13:38:48;;;;;;;9.68;3.83;;;23.10;38.30;;;;;;6157639;28;80680;-65
2024/01/26 13:41:49;;;;;;;7.95;4.25;;;23.20;38.50;;;;;;6152025;28;80185;-66
2024/01/26 13:44:51;;;;;;;7.10;3.25;;;23.20;38.30;;;;;;6151025;28;81147;-66
2024/01/26 13:47:52;;;;;;;5.15;2.83;;;23.20;38.30;;;;;;6152550;28;80578;-65
2024/01/26 13:50:52;;;;;;;6.35;3.60;;;23.20;38.10;;;;;;6153008;28;80257;-65
2024/01/26 13:53:53;;;;;;;9.77;3.90;;;23.20;38.10;;;;;;6152606;28;80459;-60
2024/01/26 13:56:56;;;;;;;9.70;4.10;;;23.30;38.00;;;;;;6152573;28;81460;-58
2024/01/26 13:59:58;;;;;;;6.45;3.03;;;23.30;38.00;;;;;;6152593;28;80655;-61
2024/01/26 14:02:58;;;;;;;7.32;4.00;;;23.30;38.10;;;;;;6163311;28;80232;-59
2024/01/26 14:05:59;;;;;;;5.82;3.20;;;23.30;38.20;;;;;;6168266;28;80559;-59
2024/01/26 14:08:59;;;;;;;8.30;3.30;;;23.30;38.10;;;;;;6170839;28;80295;-60
2024/01/26 14:12:00;;;;;;;9.82;3.70;;;23.30;38.10;;;;;;6166714;28;81539;-64
2024/01/26 14:15:01;;;;;;;10.55;3.85;;;23.30;38.10;;;;;;6169982;28;85697;-65
2024/01/26 14:18:01;;;;;;;6.45;3.38;;;23.30;37.90;;;;;;6165305;28;80884;-64
2024/01/26 14:21:01;;;;;;;10.38;4.70;;;23.20;37.70;;;;;;6157221;28;80693;-64
2024/01/26 14:24:02;;;;;;;6.28;3.60;;;23.20;37.60;;;;;;6163741;28;80386;-63
2024/01/26 14:27:03;;;;;;;5.70;3.45;;;23.30;37.60;;;;;;6157805;28;81715;-63
2024/01/26 14:30:04;;;;;;;8.60;2.88;;;23.30;37.60;;;;;;6153795;28;80633;-59
2024/01/26 14:33:04;;;;;;;7.53;2.47;;;23.30;37.70;;;;;;6163339;28;80531;-61
2024/01/26 14:36:05;;;;;;;9.13;3.25;;;23.30;38.00;;;;;;6156421;28;80401;-59
2024/01/26 14:39:08;;;;;;;7.55;3.45;;;23.30;38.10;;;;;;6167618;28;83597;-62
2024/01/26 14:42:08;;;;;;;7.90;2.75;;;23.30;38.20;;;;;;6163350;28;85756;-61
2024/01/26 14:45:10;;;;;;;8.40;3.25;;;23.30;38.40;;;;;;6159928;28;82290;-60
2024/01/26 14:48:11;;;;;;;15.65;3.80;;;23.20;38.20;;;;;;6173100;28;81137;-66
2024/01/26 14:51:12;;;;;;;16.80;4.15;;;23.30;38.40;;;;;;6159332;28;81776;-62
2024/01/26 14:54:12;;;;;;;13.98;4.68;;;23.30;38.30;;;;;;6161975;28;80715;-61
2024/01/26 14:57:13;;;;;;;6.45;2.97;;;23.30;38.50;;;;;;6160992;28;81419;-62
2024/01/26 15:00:15;;;;;;;9.52;3.67;;;23.30;38.50;;;;;;6164099;28;81502;-61
2024/01/26 15:03:16;;;;;;;11.45;3.08;;;23.30;38.50;;;;;;6163450;28;80597;-61
2024/01/26 15:06:16;;;;;;;7.80;2.63;;;23.30;38.60;;;;;;6164898;28;80847;-60
2024/01/26 15:09:17;;;;;;;8.68;3.65;;;23.30;38.50;;;;;;6167627;28;80544;-63
2024/01/26 15:12:17;;;;;;;8.48;3.10;;;23.30;38.50;;;;;;6158452;28;80829;-61
2024/01/26 15:15:18;;;;;;;8.88;3.33;;;23.30;38.50;;;;;;6160264;28;80372;-62
2024/01/26 15:18:18;;;;;;;6.18;3.30;;;23.30;38.50;;;;;;6160173;28;80841;-61
2024/01/26 15:21:19;;;;;;;5.25;2.70;;;23.30;38.40;;;;;;6156884;28;80838;-61
2024/01/26 15:24:20;;;;;;;9.63;3.80;;;23.20;38.50;;;;;;6168032;28;81123;-53
2024/01/26 15:27:24;;;;;;;10.55;3.20;;;23.20;38.30;;;;;;6163951;28;80389;-51
2024/01/26 15:30:25;;;;;;;13.43;3.95;;;23.20;38.30;;;;;;6165893;28;80548;-51
2024/01/26 15:33:25;;;;;;;8.30;3.30;;;23.20;38.40;;;;;;6158439;28;80606;-51
2024/01/26 15:36:26;;;;;;;12.52;3.33;;;23.10;38.00;;;;;;6167446;28;80538;-51
2024/01/26 15:39:26;;;;;;;7.95;3.13;;;23.10;37.80;;;;;;6166287;28;80536;-50